createdAt,value
2019-02-28T00:00:40.699Z,8.47
2019-02-28T00:03:09.163Z,8.17
2019-02-28T00:05:39.026Z,8.83
2019-02-28T00:08:07.997Z,8.83
2019-02-28T00:10:36.868Z,8.77
2019-02-28T00:13:05.853Z,8.70
2019-02-28T00:15:34.624Z,7.97
2019-02-28T00:18:03.752Z,8.13
2019-02-28T00:20:32.745Z,8.07
2019-02-28T00:23:01.978Z,9.70
2019-02-28T00:25:30.952Z,7.57
2019-02-28T00:27:59.850Z,7.43
2019-02-28T00:30:28.667Z,8.67
2019-02-28T00:32:59.299Z,8.90
2019-02-28T00:35:28.114Z,8.97
2019-02-28T00:37:57.442Z,8.00
2019-02-28T00:40:26.489Z,7.80
2019-02-28T00:42:55.300Z,7.47
2019-02-28T00:45:24.289Z,8.00
2019-02-28T00:47:53.079Z,7.60
2019-02-28T00:50:21.908Z,7.40
2019-02-28T00:52:50.716Z,8.30
2019-02-28T00:55:19.609Z,8.40
2019-02-28T00:57:48.746Z,8.00
2019-02-28T01:00:21.348Z,7.87
2019-02-28T01:02:53.472Z,8.57
2019-02-28T01:05:20.711Z,8.50
2019-02-28T01:07:50.286Z,7.87
2019-02-28T01:10:20.572Z,8.37
2019-02-28T01:12:53.051Z,7.70
2019-02-28T01:15:19.956Z,8.07
2019-02-28T01:17:48.729Z,8.20
2019-02-28T01:20:25.003Z,7.77
2019-02-28T01:22:53.966Z,8.60
2019-02-28T01:25:27.547Z,7.83
2019-02-28T01:27:56.390Z,7.67
2019-02-28T01:30:25.178Z,8.07
2019-02-28T01:32:56.825Z,8.97
2019-02-28T01:35:27.341Z,8.27
2019-02-28T01:37:56.268Z,8.80
2019-02-28T01:40:25.059Z,8.83
2019-02-28T01:42:55.017Z,9.90
2019-02-28T01:45:24.064Z,9.10
2019-02-28T01:47:53.075Z,8.90
2019-02-28T01:50:23.688Z,8.73
2019-02-28T01:52:54.353Z,7.90
2019-02-28T01:55:23.208Z,8.07
2019-02-28T01:57:52.023Z,7.77
2019-02-28T02:00:23.804Z,8.40
2019-02-28T02:02:51.344Z,8.80
2019-02-28T02:05:20.320Z,7.87
2019-02-28T02:07:49.232Z,8.47
2019-02-28T02:10:22.076Z,8.47
2019-02-28T02:12:51.978Z,7.47
2019-02-28T02:15:22.370Z,8.60
2019-02-28T02:17:51.264Z,8.47
2019-02-28T02:20:20.068Z,8.10
2019-02-28T02:22:48.865Z,7.57
2019-02-28T02:25:17.675Z,7.57
2019-02-28T02:27:46.786Z,7.93
2019-02-28T02:30:23.400Z,8.37
2019-02-28T02:32:52.435Z,9.00
2019-02-28T02:35:21.442Z,9.03
2019-02-28T02:37:50.386Z,8.07
2019-02-28T02:40:23.072Z,8.40
2019-02-28T02:42:51.373Z,8.00
2019-02-28T02:45:20.581Z,8.40
2019-02-28T02:47:49.465Z,8.80
2019-02-28T02:50:19.886Z,7.83
2019-02-28T02:52:53.817Z,7.93
2019-02-28T02:55:29.097Z,8.47
2019-02-28T02:57:57.025Z,7.97
2019-02-28T03:00:25.913Z,7.90
2019-02-28T03:02:58.522Z,8.47
2019-02-28T03:05:34.934Z,7.63
2019-02-28T03:08:01.046Z,9.03
2019-02-28T03:10:30.184Z,8.50
2019-02-28T03:12:59.317Z,8.90
2019-02-28T03:15:29.854Z,8.43
2019-02-28T03:17:58.656Z,8.33
2019-02-28T03:20:27.542Z,8.80
2019-02-28T03:22:56.690Z,9.17
2019-02-28T03:25:28.298Z,8.00
2019-02-28T03:27:56.828Z,8.57
2019-02-28T03:30:31.063Z,9.00
2019-02-28T03:32:57.222Z,8.93
2019-02-28T03:35:26.113Z,9.37
2019-02-28T03:37:57.955Z,8.10
2019-02-28T03:40:26.785Z,8.43
2019-02-28T03:42:55.809Z,8.87
2019-02-28T03:45:25.200Z,8.73
2019-02-28T03:47:58.385Z,8.23
2019-02-28T03:50:26.136Z,8.90
2019-02-28T03:52:54.998Z,8.70
2019-02-28T03:55:23.790Z,7.57
2019-02-28T03:57:52.744Z,8.47
2019-02-28T04:00:23.171Z,9.23
2019-02-28T04:02:56.817Z,8.40
2019-02-28T04:05:27.185Z,9.00
2019-02-28T04:07:54.843Z,8.17
2019-02-28T04:10:23.550Z,9.57
2019-02-28T04:12:52.583Z,9.83
2019-02-28T04:15:21.637Z,8.50
2019-02-28T04:17:50.590Z,9.17
2019-02-28T04:20:19.446Z,9.47
2019-02-28T04:22:48.400Z,8.57
2019-02-28T04:25:22.902Z,7.97
2019-02-28T04:27:48.110Z,8.97
2019-02-28T04:30:17.133Z,8.90
2019-02-28T04:32:46.203Z,8.50
2019-02-28T04:35:15.264Z,8.47
2019-02-28T04:37:46.924Z,9.03
2019-02-28T04:40:14.862Z,8.70
2019-02-28T04:42:46.005Z,8.40
2019-02-28T04:45:15.004Z,8.53
2019-02-28T04:47:43.835Z,9.20
2019-02-28T04:50:12.897Z,9.70
2019-02-28T04:52:46.728Z,8.73
2019-02-28T04:55:15.179Z,9.40
2019-02-28T04:57:47.362Z,9.07
2019-02-28T05:00:20.526Z,8.53
2019-02-28T05:02:54.874Z,9.27
2019-02-28T05:05:23.041Z,9.40
2019-02-28T05:07:51.854Z,9.30
2019-02-28T05:10:22.282Z,9.40
2019-02-28T05:12:51.560Z,8.83
2019-02-28T05:15:20.362Z,9.87
2019-02-28T05:17:49.152Z,10.67
2019-02-28T05:20:17.995Z,9.53
2019-02-28T05:22:47.006Z,9.40
2019-02-28T05:25:18.653Z,9.30
2019-02-28T05:27:48.821Z,8.93
2019-02-28T05:30:19.681Z,9.03
2019-02-28T05:32:48.679Z,8.93
2019-02-28T05:35:17.498Z,8.20
2019-02-28T05:37:48.224Z,9.27
2019-02-28T05:40:16.891Z,10.17
2019-02-28T05:42:45.754Z,10.50
2019-02-28T05:45:15.693Z,10.47
2019-02-28T05:47:47.138Z,11.33
2019-02-28T05:50:16.989Z,11.33
2019-02-28T05:52:48.127Z,10.70
2019-02-28T05:55:17.019Z,12.40
2019-02-28T05:57:45.890Z,11.93
2019-02-28T06:00:17.348Z,11.30
2019-02-28T06:02:46.242Z,10.67
2019-02-28T06:05:15.520Z,11.57
2019-02-28T06:07:44.565Z,10.10
2019-02-28T06:10:14.464Z,10.47
2019-02-28T06:12:44.753Z,10.63
2019-02-28T06:15:15.249Z,9.90
2019-02-28T06:17:44.258Z,10.53
2019-02-28T06:20:16.327Z,9.93
2019-02-28T06:22:44.417Z,10.03
2019-02-28T06:25:21.990Z,9.97
2019-02-28T06:27:50.281Z,10.63
2019-02-28T06:30:19.146Z,10.70
2019-02-28T06:32:48.186Z,10.20
2019-02-28T06:35:20.227Z,10.53
2019-02-28T06:37:48.021Z,13.88
2019-02-28T06:40:17.725Z,13.38
2019-02-28T06:42:47.704Z,12.00
2019-02-28T06:45:18.091Z,11.47
2019-02-28T06:47:49.573Z,10.40
2019-02-28T06:50:19.548Z,11.00
2019-02-28T06:52:48.808Z,10.67
2019-02-28T06:55:19.655Z,10.40
2019-02-28T06:57:48.865Z,10.73
2019-02-28T07:00:18.079Z,9.93
2019-02-28T07:02:47.170Z,10.97
2019-02-28T07:05:17.962Z,11.33
2019-02-28T07:07:49.076Z,9.97
2019-02-28T07:10:18.435Z,11.43
2019-02-28T07:12:47.306Z,10.20
2019-02-28T07:15:16.127Z,10.17
2019-02-28T07:17:47.380Z,10.50
2019-02-28T07:20:18.179Z,10.73
2019-02-28T07:22:47.925Z,11.20
2019-02-28T07:25:16.839Z,10.10
2019-02-28T07:27:45.873Z,10.77
2019-02-28T07:30:18.642Z,7.73
2019-02-28T07:32:47.561Z,11.67
2019-02-28T07:35:16.432Z,8.47
2019-02-28T07:37:45.238Z,9.27
2019-02-28T07:40:18.041Z,8.60
2019-02-28T07:42:47.000Z,9.33
2019-02-28T07:45:16.217Z,10.73
2019-02-28T07:47:45.227Z,10.73
2019-02-28T07:50:15.206Z,12.13
2019-02-28T07:52:44.074Z,10.47
2019-02-28T07:55:15.516Z,10.90
2019-02-28T07:57:44.538Z,9.90
2019-02-28T08:00:24.538Z,11.03
2019-02-28T08:02:53.693Z,10.57
2019-02-28T08:05:22.530Z,10.70
2019-02-28T08:07:52.585Z,10.57
2019-02-28T08:10:31.191Z,10.50
2019-02-28T08:13:03.122Z,10.07
2019-02-28T08:15:31.239Z,10.73
2019-02-28T08:18:00.470Z,10.47
2019-02-28T08:20:30.654Z,10.17
2019-02-28T08:23:00.042Z,10.10
2019-02-28T08:25:28.978Z,9.73
2019-02-28T08:27:59.709Z,9.87
2019-02-28T08:30:30.999Z,10.00
2019-02-28T08:32:59.873Z,10.53
2019-02-28T08:35:33.944Z,10.53
2019-02-28T08:37:59.457Z,10.17
2019-02-28T08:40:28.637Z,10.17
2019-02-28T08:42:57.884Z,10.90
2019-02-28T08:45:32.630Z,10.60
2019-02-28T08:47:58.015Z,10.63
2019-02-28T08:50:27.567Z,10.70
2019-02-28T08:52:59.786Z,10.70
2019-02-28T08:55:29.430Z,10.97
2019-02-28T08:58:05.242Z,10.87
2019-02-28T09:00:32.642Z,11.33
2019-02-28T09:03:01.114Z,11.03
2019-02-28T09:05:30.324Z,11.97
2019-02-28T09:07:59.536Z,11.50
2019-02-28T09:10:30.328Z,12.00
2019-02-28T09:12:59.434Z,11.87
2019-02-28T09:15:31.156Z,13.13
2019-02-28T09:17:59.719Z,12.73
2019-02-28T09:20:28.764Z,13.20
2019-02-28T09:23:01.776Z,12.13
2019-02-28T09:25:28.605Z,12.47
2019-02-28T09:27:57.842Z,13.23
2019-02-28T09:30:34.354Z,13.23
2019-02-28T09:33:03.394Z,13.63
2019-02-28T09:35:32.278Z,12.63
2019-02-28T09:38:06.335Z,13.40
2019-02-28T09:40:31.919Z,13.10
2019-02-28T09:43:01.143Z,12.60
2019-02-28T09:45:33.927Z,13.20
2019-02-28T09:48:02.803Z,13.40
2019-02-28T09:50:33.162Z,13.20
2019-02-28T09:53:02.817Z,12.43
2019-02-28T09:55:35.300Z,13.20
2019-02-28T09:58:02.514Z,13.00
2019-02-28T10:00:31.396Z,13.37
2019-02-28T10:03:00.454Z,12.90
2019-02-28T10:05:29.532Z,13.20
2019-02-28T10:08:02.031Z,13.97
2019-02-28T10:10:31.379Z,14.40
2019-02-28T10:13:00.470Z,18.03
2019-02-28T10:15:29.360Z,17.50
2019-02-28T10:18:00.626Z,14.33
2019-02-28T10:20:36.491Z,14.73
2019-02-28T10:23:05.400Z,13.57
2019-02-28T10:25:40.398Z,13.77
2019-02-28T10:28:05.297Z,13.63
2019-02-28T10:30:34.365Z,12.57
2019-02-28T10:33:03.168Z,13.17
2019-02-28T10:35:33.396Z,12.80
2019-02-28T10:38:02.505Z,13.10
2019-02-28T10:40:31.853Z,12.70
2019-02-28T10:43:00.847Z,14.07
2019-02-28T10:45:29.936Z,13.03
2019-02-28T10:48:02.846Z,14.27
2019-02-28T10:50:33.375Z,13.17
2019-02-28T10:53:05.358Z,12.33
2019-02-28T10:55:32.950Z,12.83
2019-02-28T10:58:01.833Z,13.93
2019-02-28T11:00:41.222Z,11.77
2019-02-28T11:03:10.331Z,13.73
2019-02-28T11:05:41.696Z,12.03
2019-02-28T11:08:14.811Z,12.03
2019-02-28T11:10:45.468Z,13.00
2019-02-28T11:13:21.034Z,13.13
2019-02-28T11:15:50.475Z,12.37
2019-02-28T11:18:19.306Z,11.40
2019-02-28T11:20:48.398Z,11.03
2019-02-28T11:23:17.363Z,11.73
2019-02-28T11:25:46.451Z,11.57
2019-02-28T11:28:15.934Z,10.87
2019-02-28T11:30:46.119Z,11.00
2019-02-28T11:33:16.517Z,10.53
2019-02-28T11:35:45.493Z,10.83
2019-02-28T11:38:20.518Z,11.70
2019-02-28T11:40:45.883Z,9.80
2019-02-28T11:43:15.069Z,8.97
2019-02-28T11:45:46.436Z,9.80
2019-02-28T11:48:24.544Z,9.60
2019-02-28T11:50:53.391Z,8.77
2019-02-28T11:53:22.340Z,8.60
2019-02-28T11:55:54.492Z,8.37
2019-02-28T11:58:23.492Z,8.47
2019-02-28T12:00:52.895Z,8.57
2019-02-28T12:03:22.098Z,8.27
2019-02-28T12:05:51.359Z,8.33
2019-02-28T12:08:22.398Z,8.97
2019-02-28T12:10:51.440Z,8.77
2019-02-28T12:13:20.656Z,9.67
2019-02-28T12:15:49.593Z,8.70
2019-02-28T12:18:18.474Z,9.50
2019-02-28T12:20:47.598Z,11.07
2019-02-28T12:23:16.449Z,10.23
2019-02-28T12:25:45.633Z,10.03
2019-02-28T12:28:14.788Z,9.23
2019-02-28T12:30:43.962Z,9.33
2019-02-28T12:33:15.513Z,10.57
2019-02-28T12:35:43.775Z,9.80
2019-02-28T12:38:12.799Z,10.20
2019-02-28T12:40:45.671Z,10.00
2019-02-28T12:43:14.899Z,9.53
2019-02-28T12:45:47.339Z,9.60
2019-02-28T12:48:16.808Z,9.10
2019-02-28T12:50:45.937Z,10.17
2019-02-28T12:53:14.822Z,8.98
2019-02-28T12:55:43.906Z,9.45
2019-02-28T12:58:12.955Z,9.10
2019-02-28T13:00:43.739Z,9.00
2019-02-28T13:03:15.911Z,9.50
2019-02-28T13:06:02.826Z,8.73
2019-02-28T13:08:31.734Z,9.55
2019-02-28T13:11:04.282Z,8.83
2019-02-28T13:13:31.318Z,10.13
2019-02-28T13:16:00.202Z,9.90
2019-02-28T13:18:29.363Z,9.25
2019-02-28T13:20:58.288Z,10.15
2019-02-28T13:23:27.909Z,8.75
2019-02-28T13:25:59.991Z,8.93
2019-02-28T13:28:27.482Z,9.65
2019-02-28T13:30:56.537Z,8.85
2019-02-28T13:33:26.222Z,9.43
2019-02-28T13:35:55.284Z,8.63
2019-02-28T13:38:25.234Z,9.30
2019-02-28T13:40:55.243Z,9.40
2019-02-28T13:43:24.426Z,9.53
2019-02-28T13:45:55.919Z,9.55
2019-02-28T13:48:26.314Z,9.83
2019-02-28T13:50:59.376Z,9.15
2019-02-28T13:53:27.043Z,10.60
2019-02-28T13:55:58.060Z,9.83
2019-02-28T13:58:28.076Z,11.12
2019-02-28T14:00:57.414Z,10.53
2019-02-28T14:03:26.482Z,10.78
2019-02-28T14:05:55.344Z,10.90
2019-02-28T14:08:24.352Z,10.35
2019-02-28T14:10:53.301Z,9.83
2019-02-28T14:13:22.163Z,10.90
2019-02-28T14:15:52.789Z,9.58
2019-02-28T14:18:25.195Z,10.65
2019-02-28T14:20:54.032Z,11.00
2019-02-28T14:23:24.577Z,10.82
2019-02-28T14:25:53.412Z,11.00
2019-02-28T14:28:22.288Z,10.53
2019-02-28T14:30:54.409Z,10.40
2019-02-28T14:33:22.701Z,10.43
2019-02-28T14:35:51.838Z,11.33
2019-02-28T14:38:20.760Z,11.45
2019-02-28T14:40:52.884Z,11.23
2019-02-28T14:43:20.740Z,10.98
2019-02-28T14:45:49.991Z,11.22
2019-02-28T14:48:19.208Z,11.43
2019-02-28T14:50:50.663Z,11.12
2019-02-28T14:53:18.744Z,11.57
2019-02-28T14:55:47.886Z,11.83
2019-02-28T14:58:16.779Z,11.25
2019-02-28T15:00:46.016Z,11.40
2019-02-28T15:03:15.091Z,10.77
2019-02-28T15:05:44.416Z,10.90
2019-02-28T15:08:15.437Z,10.60
2019-02-28T15:10:44.990Z,10.20
2019-02-28T15:13:14.163Z,10.33
2019-02-28T15:15:49.457Z,9.40
2019-02-28T15:18:14.869Z,9.27
2019-02-28T15:20:44.037Z,8.80
2019-02-28T15:23:13.247Z,8.73
2019-02-28T15:25:43.267Z,9.30
2019-02-28T15:28:13.847Z,8.23
2019-02-28T15:30:43.389Z,7.70
2019-02-28T15:33:12.258Z,8.30
2019-02-28T15:35:41.265Z,8.40
2019-02-28T15:38:10.465Z,8.03
2019-02-28T15:40:46.586Z,7.43
2019-02-28T15:43:18.223Z,6.40
2019-02-28T15:45:46.131Z,6.53
2019-02-28T15:48:15.131Z,6.33
2019-02-28T15:50:44.101Z,6.27
2019-02-28T15:53:15.090Z,5.43
2019-02-28T15:55:43.784Z,5.83
2019-02-28T15:58:12.999Z,6.33
2019-02-28T16:00:42.361Z,6.20
2019-02-28T16:03:13.430Z,5.37
2019-02-28T16:05:44.058Z,5.80
2019-02-28T16:08:12.486Z,6.63
2019-02-28T16:10:52.596Z,6.33
2019-02-28T16:13:12.468Z,5.63
2019-02-28T16:15:43.275Z,5.47
2019-02-28T16:18:12.786Z,5.80
2019-02-28T16:20:41.991Z,5.73
2019-02-28T16:23:11.060Z,5.27
2019-02-28T16:25:40.361Z,5.73
2019-02-28T16:28:09.642Z,6.27
2019-02-28T16:30:39.624Z,5.67
2019-02-28T16:33:08.553Z,6.30
2019-02-28T16:35:37.461Z,6.50
2019-02-28T16:38:09.747Z,6.07
2019-02-28T16:40:38.160Z,6.73
2019-02-28T16:43:07.062Z,6.67
2019-02-28T16:45:43.192Z,5.97
2019-02-28T16:48:12.327Z,7.27
2019-02-28T16:50:41.303Z,7.10
2019-02-28T16:53:15.005Z,5.60
2019-02-28T16:55:41.095Z,11.60
2019-02-28T16:58:09.990Z,9.93
2019-02-28T17:00:39.602Z,7.47
2019-02-28T17:03:10.025Z,5.93
2019-02-28T17:05:39.108Z,34.83
2019-02-28T17:08:08.020Z,6.93
2019-02-28T17:10:40.092Z,5.97
2019-02-28T17:13:16.041Z,6.60
2019-02-28T17:15:52.221Z,6.77
2019-02-28T17:18:28.881Z,12.83
2019-02-28T17:20:57.970Z,7.17
2019-02-28T17:23:26.945Z,6.47
2019-02-28T17:25:56.537Z,5.90
2019-02-28T17:28:37.181Z,8.57
2019-02-28T17:31:24.080Z,6.53
2019-02-28T17:33:53.380Z,7.12
2019-02-28T17:36:23.166Z,11.47
2019-02-28T17:38:52.287Z,19.43
2019-02-28T17:41:21.412Z,9.00
2019-02-28T17:44:25.272Z,7.77
2019-02-28T17:47:00.570Z,7.27
2019-02-28T17:50:07.843Z,7.53
2019-02-28T17:52:48.105Z,8.77
2019-02-28T17:55:41.276Z,7.17
2019-02-28T17:58:32.657Z,7.47
2019-02-28T18:01:38.419Z,7.73
2019-02-28T18:04:38.136Z,7.17
2019-02-28T18:07:12.963Z,8.13
2019-02-28T18:09:54.988Z,8.20
2019-02-28T18:12:49.786Z,7.37
2019-02-28T18:15:31.413Z,7.40
2019-02-28T18:18:21.060Z,7.87
2019-02-28T18:21:12.710Z,7.87
2019-02-28T18:24:18.251Z,7.93
2019-02-28T18:27:08.354Z,8.33
2019-02-28T18:30:05.435Z,8.43
2019-02-28T18:32:34.600Z,7.93
2019-02-28T18:35:04.210Z,9.30
2019-02-28T18:37:33.116Z,8.30
2019-02-28T18:40:04.368Z,8.13
2019-02-28T18:42:33.361Z,7.93
2019-02-28T18:45:02.188Z,8.33
2019-02-28T18:47:31.529Z,8.30
2019-02-28T18:50:00.547Z,8.07
2019-02-28T18:52:29.367Z,8.53
2019-02-28T18:55:05.718Z,8.40
2019-02-28T18:57:30.622Z,7.97
2019-02-28T18:59:59.489Z,8.43
2019-02-28T19:02:28.283Z,8.27
2019-02-28T19:04:57.365Z,8.50
2019-02-28T19:07:27.051Z,8.00
2019-02-28T19:09:56.010Z,8.47
2019-02-28T19:12:24.837Z,8.63
2019-02-28T19:14:53.937Z,9.03
2019-02-28T19:17:22.826Z,8.87
2019-02-28T19:19:51.623Z,8.27
2019-02-28T19:22:20.487Z,7.60
2019-02-28T19:24:49.432Z,7.87
2019-02-28T19:27:18.402Z,7.47
2019-02-28T19:29:47.351Z,8.30
2019-02-28T19:32:16.281Z,8.13
2019-02-28T19:34:45.898Z,8.10
2019-02-28T19:37:14.969Z,7.10
2019-02-28T19:39:44.077Z,7.33
2019-02-28T19:42:12.895Z,7.83
2019-02-28T19:44:42.056Z,7.70
2019-02-28T19:47:11.170Z,7.57
2019-02-28T19:49:40.070Z,6.80
2019-02-28T19:52:09.025Z,7.40
2019-02-28T19:54:37.899Z,7.40
2019-02-28T19:57:06.925Z,6.50
2019-02-28T19:59:36.068Z,5.87
2019-02-28T20:02:05.232Z,6.10
2019-02-28T20:04:34.094Z,5.33
2019-02-28T20:07:03.100Z,5.07
2019-02-28T20:09:33.101Z,4.47
2019-02-28T20:12:02.049Z,4.47
2019-02-28T20:14:30.999Z,4.77
2019-02-28T20:16:59.875Z,4.20
2019-02-28T20:19:30.471Z,4.30
2019-02-28T20:21:59.338Z,3.80
2019-02-28T20:24:31.019Z,3.70
2019-02-28T20:26:59.817Z,3.43
2019-02-28T20:29:28.878Z,3.10
2019-02-28T20:31:57.782Z,2.70
2019-02-28T20:34:26.926Z,2.37
2019-02-28T20:36:58.103Z,2.67
2019-02-28T20:39:27.147Z,2.40
2019-02-28T20:41:56.002Z,3.27
2019-02-28T20:44:24.826Z,2.60
2019-02-28T20:46:53.609Z,2.80
2019-02-28T20:49:24.213Z,2.70
2019-02-28T20:51:55.419Z,3.60
2019-02-28T20:54:24.237Z,2.57
2019-02-28T20:56:53.199Z,2.83
2019-02-28T20:59:22.182Z,3.43
2019-02-28T21:01:51.156Z,2.80
2019-02-28T21:04:20.116Z,2.70
2019-02-28T21:06:49.052Z,3.53
2019-02-28T21:09:19.287Z,3.70
2019-02-28T21:11:48.177Z,16.37
2019-02-28T21:14:16.981Z,2.00
2019-02-28T21:16:45.923Z,4.13
2019-02-28T21:19:14.733Z,2.80
2019-02-28T21:21:43.640Z,3.23
2019-02-28T21:24:12.420Z,3.03
2019-02-28T21:26:41.322Z,3.20
2019-02-28T21:29:10.121Z,2.03
2019-02-28T21:31:38.955Z,2.20
2019-02-28T21:34:07.823Z,4.43
2019-02-28T21:36:36.811Z,2.70
2019-02-28T21:39:06.754Z,2.60
2019-02-28T21:41:35.981Z,2.60
2019-02-28T21:44:04.926Z,4.20
2019-02-28T21:46:33.770Z,2.83
2019-02-28T21:49:03.047Z,4.90
2019-02-28T21:51:31.897Z,2.37
2019-02-28T21:54:00.716Z,2.97
2019-02-28T21:56:29.615Z,10.90
2019-02-28T21:58:58.424Z,3.10
2019-02-28T22:01:27.199Z,2.67
2019-02-28T22:03:56.038Z,2.80
2019-02-28T22:06:25.099Z,2.73
2019-02-28T22:08:53.946Z,2.67
2019-02-28T22:11:24.094Z,2.73
2019-02-28T22:13:53.739Z,2.60
2019-02-28T22:16:26.527Z,3.33
2019-02-28T22:18:58.982Z,2.83
2019-02-28T22:21:26.863Z,3.03
2019-02-28T22:23:55.704Z,2.70
2019-02-28T22:26:24.568Z,3.30
2019-02-28T22:28:53.511Z,2.73
2019-02-28T22:31:26.301Z,2.73
2019-02-28T22:33:57.148Z,2.87
2019-02-28T22:36:27.640Z,2.40
2019-02-28T22:38:59.828Z,2.00
2019-02-28T22:41:28.778Z,2.37
2019-02-28T22:44:05.181Z,1.70
2019-02-28T22:46:34.264Z,1.83
2019-02-28T22:49:03.250Z,1.97
2019-02-28T22:51:32.121Z,1.90
2019-02-28T22:54:01.174Z,2.10
2019-02-28T22:56:30.303Z,2.20
2019-02-28T22:58:59.253Z,2.23
2019-02-28T23:01:28.273Z,2.40
2019-02-28T23:03:57.196Z,2.40
2019-02-28T23:06:26.117Z,2.43
2019-02-28T23:08:55.770Z,2.17
2019-02-28T23:11:24.793Z,2.20
2019-02-28T23:13:53.826Z,2.20
2019-02-28T23:16:22.853Z,2.10
2019-02-28T23:18:51.662Z,2.20
2019-02-28T23:21:20.495Z,2.43
2019-02-28T23:23:49.696Z,2.50
2019-02-28T23:26:21.839Z,2.17
2019-02-28T23:28:53.944Z,2.40
2019-02-28T23:31:50.452Z,2.20
2019-02-28T23:34:25.623Z,2.13
2019-02-28T23:36:54.515Z,2.03
2019-02-28T23:39:23.354Z,2.23
2019-02-28T23:41:53.254Z,2.20
2019-02-28T23:44:22.080Z,1.93
2019-02-28T23:46:51.062Z,2.37
2019-02-28T23:49:19.982Z,2.13
2019-02-28T23:51:48.837Z,2.07
2019-02-28T23:54:17.711Z,2.27
2019-02-28T23:56:46.558Z,1.80
2019-02-28T23:59:16.473Z,2.20
